sensor_id;sensor_type;location;lat;lon;timestamp;temperature;humidity
12060;DHT22;6091;51.432;6.880;2023-12-20T00:02:25;22.80;37.60
12060;DHT22;6091;51.432;6.880;2023-12-20T00:04:52;22.70;37.60
12060;DHT22;6091;51.432;6.880;2023-12-20T00:07:22;22.70;37.60
12060;DHT22;6091;51.432;6.880;2023-12-20T00:09:49;22.70;37.60
12060;DHT22;6091;51.432;6.880;2023-12-20T00:12:17;22.70;37.60
12060;DHT22;6091;51.432;6.880;2023-12-20T00:14:44;22.70;37.60
12060;DHT22;6091;51.432;6.880;2023-12-20T00:17:11;22.70;37.60
12060;DHT22;6091;51.432;6.880;2023-12-20T00:19:38;22.70;37.60
12060;DHT22;6091;51.432;6.880;2023-12-20T00:22:05;22.70;37.60
12060;DHT22;6091;51.432;6.880;2023-12-20T00:24:33;22.70;37.60
12060;DHT22;6091;51.432;6.880;2023-12-20T00:27:00;22.70;37.60
12060;DHT22;6091;51.432;6.880;2023-12-20T00:29:27;22.70;37.70
12060;DHT22;6091;51.432;6.880;2023-12-20T00:31:54;22.70;37.70
12060;DHT22;6091;51.432;6.880;2023-12-20T00:34:21;22.60;37.60
12060;DHT22;6091;51.432;6.880;2023-12-20T00:36:49;22.60;37.60
12060;DHT22;6091;51.432;6.880;2023-12-20T00:39:16;22.60;37.60
12060;DHT22;6091;51.432;6.880;2023-12-20T00:41:43;22.60;37.60
12060;DHT22;6091;51.432;6.880;2023-12-20T00:44:10;22.60;37.60
12060;DHT22;6091;51.432;6.880;2023-12-20T00:46:37;22.60;37.60
12060;DHT22;6091;51.432;6.880;2023-12-20T00:49:04;22.50;37.60
12060;DHT22;6091;51.432;6.880;2023-12-20T00:51:31;22.60;37.60
12060;DHT22;6091;51.432;6.880;2023-12-20T00:53:58;22.60;37.70
12060;DHT22;6091;51.432;6.880;2023-12-20T00:56:25;22.50;37.60
12060;DHT22;6091;51.432;6.880;2023-12-20T00:58:52;22.60;37.70
12060;DHT22;6091;51.432;6.880;2023-12-20T01:01:19;22.60;37.70
12060;DHT22;6091;51.432;6.880;2023-12-20T01:03:48;22.60;37.70
12060;DHT22;6091;51.432;6.880;2023-12-20T01:06:18;22.60;37.70
12060;DHT22;6091;51.432;6.880;2023-12-20T01:08:45;22.50;37.70
12060;DHT22;6091;51.432;6.880;2023-12-20T01:11:12;22.50;37.70
12060;DHT22;6091;51.432;6.880;2023-12-20T01:13:39;22.60;37.70
12060;DHT22;6091;51.432;6.880;2023-12-20T01:16:06;22.50;37.70
12060;DHT22;6091;51.432;6.880;2023-12-20T01:18:37;22.50;37.70
12060;DHT22;6091;51.432;6.880;2023-12-20T01:21:05;22.50;37.70
12060;DHT22;6091;51.432;6.880;2023-12-20T01:23:33;22.50;37.80
12060;DHT22;6091;51.432;6.880;2023-12-20T01:26:00;22.50;38.00
12060;DHT22;6091;51.432;6.880;2023-12-20T01:28:27;22.50;37.80
12060;DHT22;6091;51.432;6.880;2023-12-20T01:30:54;22.50;37.70
12060;DHT22;6091;51.432;6.880;2023-12-20T01:33:22;22.40;37.60
12060;DHT22;6091;51.432;6.880;2023-12-20T01:35:49;22.40;37.70
12060;DHT22;6091;51.432;6.880;2023-12-20T01:38:16;22.40;37.70
12060;DHT22;6091;51.432;6.880;2023-12-20T01:40:45;22.40;37.70
12060;DHT22;6091;51.432;6.880;2023-12-20T01:43:13;22.40;37.70
12060;DHT22;6091;51.432;6.880;2023-12-20T01:45:40;22.40;37.70
12060;DHT22;6091;51.432;6.880;2023-12-20T01:48:08;22.40;37.70
12060;DHT22;6091;51.432;6.880;2023-12-20T01:50:37;22.40;37.70
12060;DHT22;6091;51.432;6.880;2023-12-20T01:53:05;22.40;37.70
12060;DHT22;6091;51.432;6.880;2023-12-20T01:55:37;22.40;37.70
12060;DHT22;6091;51.432;6.880;2023-12-20T01:58:07;22.40;37.70
12060;DHT22;6091;51.432;6.880;2023-12-20T02:00:36;22.40;37.70
12060;DHT22;6091;51.432;6.880;2023-12-20T02:03:04;22.40;37.70
12060;DHT22;6091;51.432;6.880;2023-12-20T02:05:34;22.40;37.80
12060;DHT22;6091;51.432;6.880;2023-12-20T02:08:02;22.40;37.80
12060;DHT22;6091;51.432;6.880;2023-12-20T02:10:30;22.40;37.80
12060;DHT22;6091;51.432;6.880;2023-12-20T02:12:57;22.30;38.30
12060;DHT22;6091;51.432;6.880;2023-12-20T02:15:24;22.40;37.80
12060;DHT22;6091;51.432;6.880;2023-12-20T02:17:52;22.30;37.70
12060;DHT22;6091;51.432;6.880;2023-12-20T02:20:20;22.30;37.80
12060;DHT22;6091;51.432;6.880;2023-12-20T02:22:47;22.30;37.70
12060;DHT22;6091;51.432;6.880;2023-12-20T02:25:14;22.30;37.80
12060;DHT22;6091;51.432;6.880;2023-12-20T02:27:41;22.30;37.80
12060;DHT22;6091;51.432;6.880;2023-12-20T02:30:10;22.30;37.80
12060;DHT22;6091;51.432;6.880;2023-12-20T02:32:37;22.30;37.80
12060;DHT22;6091;51.432;6.880;2023-12-20T02:35:04;22.30;37.80
12060;DHT22;6091;51.432;6.880;2023-12-20T02:37:33;22.30;37.80
12060;DHT22;6091;51.432;6.880;2023-12-20T02:40:00;22.30;37.80
12060;DHT22;6091;51.432;6.880;2023-12-20T02:42:27;22.30;37.80
12060;DHT22;6091;51.432;6.880;2023-12-20T02:44:55;22.30;37.80
12060;DHT22;6091;51.432;6.880;2023-12-20T02:47:22;22.30;37.80
12060;DHT22;6091;51.432;6.880;2023-12-20T02:49:49;22.20;37.80
12060;DHT22;6091;51.432;6.880;2023-12-20T02:52:16;22.20;37.70
12060;DHT22;6091;51.432;6.880;2023-12-20T02:54:43;22.20;37.80
12060;DHT22;6091;51.432;6.880;2023-12-20T02:57:10;22.20;37.80
12060;DHT22;6091;51.432;6.880;2023-12-20T02:59:38;22.20;37.80
12060;DHT22;6091;51.432;6.880;2023-12-20T03:02:05;22.20;37.80
12060;DHT22;6091;51.432;6.880;2023-12-20T03:04:32;22.20;37.80
12060;DHT22;6091;51.432;6.880;2023-12-20T03:07:01;22.20;37.80
12060;DHT22;6091;51.432;6.880;2023-12-20T03:09:28;22.20;37.80
12060;DHT22;6091;51.432;6.880;2023-12-20T03:12:04;22.20;37.80
12060;DHT22;6091;51.432;6.880;2023-12-20T03:14:31;22.20;37.80
12060;DHT22;6091;51.432;6.880;2023-12-20T03:16:58;22.10;37.80
12060;DHT22;6091;51.432;6.880;2023-12-20T03:19:26;22.20;37.90
12060;DHT22;6091;51.432;6.880;2023-12-20T03:21:53;22.20;37.90
12060;DHT22;6091;51.432;6.880;2023-12-20T03:24:20;22.10;37.80
12060;DHT22;6091;51.432;6.880;2023-12-20T03:26:47;22.10;37.90
12060;DHT22;6091;51.432;6.880;2023-12-20T03:29:14;22.10;37.80
12060;DHT22;6091;51.432;6.880;2023-12-20T03:31:41;22.10;37.90
12060;DHT22;6091;51.432;6.880;2023-12-20T03:34:09;22.10;37.80
12060;DHT22;6091;51.432;6.880;2023-12-20T03:36:36;22.10;37.90
12060;DHT22;6091;51.432;6.880;2023-12-20T03:39:03;22.10;37.90
12060;DHT22;6091;51.432;6.880;2023-12-20T03:41:30;22.10;37.90
12060;DHT22;6091;51.432;6.880;2023-12-20T03:43:57;22.10;37.90
12060;DHT22;6091;51.432;6.880;2023-12-20T03:46:24;22.10;37.90
12060;DHT22;6091;51.432;6.880;2023-12-20T03:48:51;22.10;37.90
12060;DHT22;6091;51.432;6.880;2023-12-20T03:51:18;22.00;37.90
12060;DHT22;6091;51.432;6.880;2023-12-20T03:53:45;22.00;37.90
12060;DHT22;6091;51.432;6.880;2023-12-20T03:56:13;22.00;37.90
12060;DHT22;6091;51.432;6.880;2023-12-20T03:58:41;22.00;37.90
12060;DHT22;6091;51.432;6.880;2023-12-20T04:01:11;22.00;37.90
12060;DHT22;6091;51.432;6.880;2023-12-20T04:03:39;22.00;37.90
12060;DHT22;6091;51.432;6.880;2023-12-20T04:06:08;22.00;37.90
12060;DHT22;6091;51.432;6.880;2023-12-20T04:08:36;22.00;37.90
12060;DHT22;6091;51.432;6.880;2023-12-20T04:11:03;22.00;37.90
12060;DHT22;6091;51.432;6.880;2023-12-20T04:13:30;22.00;37.90
12060;DHT22;6091;51.432;6.880;2023-12-20T04:15:57;22.00;38.00
12060;DHT22;6091;51.432;6.880;2023-12-20T04:18:24;21.90;37.90
12060;DHT22;6091;51.432;6.880;2023-12-20T04:20:52;22.00;38.00
12060;DHT22;6091;51.432;6.880;2023-12-20T04:23:19;21.90;37.90
12060;DHT22;6091;51.432;6.880;2023-12-20T04:25:46;21.90;38.10
12060;DHT22;6091;51.432;6.880;2023-12-20T04:28:13;21.90;37.90
12060;DHT22;6091;51.432;6.880;2023-12-20T04:30:41;21.90;37.90
12060;DHT22;6091;51.432;6.880;2023-12-20T04:33:09;21.90;37.90
12060;DHT22;6091;51.432;6.880;2023-12-20T04:35:36;21.90;37.90
12060;DHT22;6091;51.432;6.880;2023-12-20T04:38:03;21.90;37.90
12060;DHT22;6091;51.432;6.880;2023-12-20T04:40:30;21.90;37.90
12060;DHT22;6091;51.432;6.880;2023-12-20T04:42:57;21.90;38.00
12060;DHT22;6091;51.432;6.880;2023-12-20T04:45:26;21.90;38.00
12060;DHT22;6091;51.432;6.880;2023-12-20T04:47:53;21.90;38.00
12060;DHT22;6091;51.432;6.880;2023-12-20T04:50:20;21.90;38.00
12060;DHT22;6091;51.432;6.880;2023-12-20T04:52:48;21.90;38.00
12060;DHT22;6091;51.432;6.880;2023-12-20T04:55:15;21.80;37.90
12060;DHT22;6091;51.432;6.880;2023-12-20T04:57:42;21.90;38.10
12060;DHT22;6091;51.432;6.880;2023-12-20T05:00:11;21.90;38.00
12060;DHT22;6091;51.432;6.880;2023-12-20T05:02:38;21.80;38.00
12060;DHT22;6091;51.432;6.880;2023-12-20T05:05:06;21.80;38.00
12060;DHT22;6091;51.432;6.880;2023-12-20T05:07:33;21.80;37.90
12060;DHT22;6091;51.432;6.880;2023-12-20T05:10:02;21.80;38.00
12060;DHT22;6091;51.432;6.880;2023-12-20T05:12:31;21.80;38.00
12060;DHT22;6091;51.432;6.880;2023-12-20T05:14:58;21.80;38.00
12060;DHT22;6091;51.432;6.880;2023-12-20T05:17:26;21.80;38.00
12060;DHT22;6091;51.432;6.880;2023-12-20T05:19:53;21.80;38.00
12060;DHT22;6091;51.432;6.880;2023-12-20T05:22:20;21.80;38.00
12060;DHT22;6091;51.432;6.880;2023-12-20T05:24:48;21.80;38.00
12060;DHT22;6091;51.432;6.880;2023-12-20T05:27:15;21.80;38.00
12060;DHT22;6091;51.432;6.880;2023-12-20T05:29:43;21.70;37.90
12060;DHT22;6091;51.432;6.880;2023-12-20T05:32:10;21.80;38.00
12060;DHT22;6091;51.432;6.880;2023-12-20T05:34:37;21.80;38.10
12060;DHT22;6091;51.432;6.880;2023-12-20T05:37:04;21.80;38.10
12060;DHT22;6091;51.432;6.880;2023-12-20T05:39:31;21.80;38.10
12060;DHT22;6091;51.432;6.880;2023-12-20T05:41:58;21.70;38.00
12060;DHT22;6091;51.432;6.880;2023-12-20T05:44:25;21.70;38.00
12060;DHT22;6091;51.432;6.880;2023-12-20T05:46:53;21.70;38.00
12060;DHT22;6091;51.432;6.880;2023-12-20T05:49:20;21.70;38.00
12060;DHT22;6091;51.432;6.880;2023-12-20T05:51:48;21.70;38.00
12060;DHT22;6091;51.432;6.880;2023-12-20T05:54:18;21.70;38.00
12060;DHT22;6091;51.432;6.880;2023-12-20T05:56:46;21.70;38.00
12060;DHT22;6091;51.432;6.880;2023-12-20T05:59:13;21.70;38.00
12060;DHT22;6091;51.432;6.880;2023-12-20T06:01:40;21.70;38.00
12060;DHT22;6091;51.432;6.880;2023-12-20T06:04:07;21.70;38.00
12060;DHT22;6091;51.432;6.880;2023-12-20T06:06:40;21.70;38.10
12060;DHT22;6091;51.432;6.880;2023-12-20T06:09:09;21.70;38.20
12060;DHT22;6091;51.432;6.880;2023-12-20T06:11:37;21.70;38.50
12060;DHT22;6091;51.432;6.880;2023-12-20T06:14:04;21.70;38.70
12060;DHT22;6091;51.432;6.880;2023-12-20T06:16:31;21.80;39.00
12060;DHT22;6091;51.432;6.880;2023-12-20T06:18:58;21.90;39.10
12060;DHT22;6091;51.432;6.880;2023-12-20T06:21:26;22.00;39.20
12060;DHT22;6091;51.432;6.880;2023-12-20T06:23:52;22.20;39.30
12060;DHT22;6091;51.432;6.880;2023-12-20T06:26:20;22.30;39.20
12060;DHT22;6091;51.432;6.880;2023-12-20T06:28:47;22.50;39.20
12060;DHT22;6091;51.432;6.880;2023-12-20T06:31:14;22.70;39.20
12060;DHT22;6091;51.432;6.880;2023-12-20T06:33:43;22.80;39.10
12060;DHT22;6091;51.432;6.880;2023-12-20T06:36:14;23.00;39.00
12060;DHT22;6091;51.432;6.880;2023-12-20T06:38:41;23.10;38.80
12060;DHT22;6091;51.432;6.880;2023-12-20T06:41:12;23.30;38.90
12060;DHT22;6091;51.432;6.880;2023-12-20T06:43:42;23.50;38.80
12060;DHT22;6091;51.432;6.880;2023-12-20T06:46:16;23.60;38.70
12060;DHT22;6091;51.432;6.880;2023-12-20T06:48:44;23.70;38.60
12060;DHT22;6091;51.432;6.880;2023-12-20T06:51:16;23.80;38.40
12060;DHT22;6091;51.432;6.880;2023-12-20T06:53:44;24.00;38.30
12060;DHT22;6091;51.432;6.880;2023-12-20T06:56:11;24.10;38.30
12060;DHT22;6091;51.432;6.880;2023-12-20T06:58:45;24.20;38.20
12060;DHT22;6091;51.432;6.880;2023-12-20T07:01:14;24.40;38.20
12060;DHT22;6091;51.432;6.880;2023-12-20T07:03:42;24.40;38.00
12060;DHT22;6091;51.432;6.880;2023-12-20T07:06:09;24.50;37.90
12060;DHT22;6091;51.432;6.880;2023-12-20T07:08:36;24.60;37.90
12060;DHT22;6091;51.432;6.880;2023-12-20T07:11:04;24.70;37.90
12060;DHT22;6091;51.432;6.880;2023-12-20T07:13:31;24.80;37.90
12060;DHT22;6091;51.432;6.880;2023-12-20T07:15:58;24.90;37.90
12060;DHT22;6091;51.432;6.880;2023-12-20T07:18:25;24.90;37.80
12060;DHT22;6091;51.432;6.880;2023-12-20T07:20:52;25.00;37.80
12060;DHT22;6091;51.432;6.880;2023-12-20T07:23:21;25.10;37.80
12060;DHT22;6091;51.432;6.880;2023-12-20T07:25:52;25.10;37.80
12060;DHT22;6091;51.432;6.880;2023-12-20T07:28:26;25.20;37.60
12060;DHT22;6091;51.432;6.880;2023-12-20T07:30:53;25.20;37.70
12060;DHT22;6091;51.432;6.880;2023-12-20T07:33:20;25.20;37.50
12060;DHT22;6091;51.432;6.880;2023-12-20T07:35:48;25.30;37.50
12060;DHT22;6091;51.432;6.880;2023-12-20T07:38:15;25.30;37.40
12060;DHT22;6091;51.432;6.880;2023-12-20T07:40:42;25.30;37.40
12060;DHT22;6091;51.432;6.880;2023-12-20T07:43:09;25.40;37.30
12060;DHT22;6091;51.432;6.880;2023-12-20T07:45:36;25.40;37.30
12060;DHT22;6091;51.432;6.880;2023-12-20T07:48:06;25.30;37.10
12060;DHT22;6091;51.432;6.880;2023-12-20T07:50:34;25.40;37.10
12060;DHT22;6091;51.432;6.880;2023-12-20T07:53:02;25.40;37.10
12060;DHT22;6091;51.432;6.880;2023-12-20T07:55:30;25.40;36.90
12060;DHT22;6091;51.432;6.880;2023-12-20T07:57:58;25.40;37.00
12060;DHT22;6091;51.432;6.880;2023-12-20T08:00:26;25.40;36.90
12060;DHT22;6091;51.432;6.880;2023-12-20T08:02:53;25.30;36.90
12060;DHT22;6091;51.432;6.880;2023-12-20T08:05:21;25.30;36.90
12060;DHT22;6091;51.432;6.880;2023-12-20T08:07:48;25.30;37.00
12060;DHT22;6091;51.432;6.880;2023-12-20T08:10:15;25.30;37.00
12060;DHT22;6091;51.432;6.880;2023-12-20T08:12:42;25.30;37.10
12060;DHT22;6091;51.432;6.880;2023-12-20T08:15:10;25.30;37.20
12060;DHT22;6091;51.432;6.880;2023-12-20T08:17:37;25.20;37.10
12060;DHT22;6091;51.432;6.880;2023-12-20T08:20:05;25.30;37.20
12060;DHT22;6091;51.432;6.880;2023-12-20T08:22:33;25.30;37.20
12060;DHT22;6091;51.432;6.880;2023-12-20T08:25:00;25.40;37.20
12060;DHT22;6091;51.432;6.880;2023-12-20T08:27:28;25.40;37.20
12060;DHT22;6091;51.432;6.880;2023-12-20T08:29:55;25.40;37.10
12060;DHT22;6091;51.432;6.880;2023-12-20T08:32:25;25.40;37.10
12060;DHT22;6091;51.432;6.880;2023-12-20T08:34:53;25.40;37.10
12060;DHT22;6091;51.432;6.880;2023-12-20T08:37:20;25.40;37.20
12060;DHT22;6091;51.432;6.880;2023-12-20T08:39:47;25.40;37.10
12060;DHT22;6091;51.432;6.880;2023-12-20T08:42:14;25.50;37.20
12060;DHT22;6091;51.432;6.880;2023-12-20T08:44:44;25.50;37.10
12060;DHT22;6091;51.432;6.880;2023-12-20T08:47:11;25.60;37.10
12060;DHT22;6091;51.432;6.880;2023-12-20T08:49:40;25.60;37.10
12060;DHT22;6091;51.432;6.880;2023-12-20T08:52:07;25.60;37.00
12060;DHT22;6091;51.432;6.880;2023-12-20T08:54:34;25.70;37.20
12060;DHT22;6091;51.432;6.880;2023-12-20T08:57:01;25.70;37.10
12060;DHT22;6091;51.432;6.880;2023-12-20T08:59:28;25.70;37.00
12060;DHT22;6091;51.432;6.880;2023-12-20T09:01:55;25.80;37.00
12060;DHT22;6091;51.432;6.880;2023-12-20T09:04:22;25.70;36.90
12060;DHT22;6091;51.432;6.880;2023-12-20T09:06:50;25.70;37.10
12060;DHT22;6091;51.432;6.880;2023-12-20T09:09:17;25.80;37.00
12060;DHT22;6091;51.432;6.880;2023-12-20T09:11:44;25.80;36.80
12060;DHT22;6091;51.432;6.880;2023-12-20T09:14:13;25.90;36.80
12060;DHT22;6091;51.432;6.880;2023-12-20T09:16:40;25.90;36.60
12060;DHT22;6091;51.432;6.880;2023-12-20T09:19:07;25.90;36.50
12060;DHT22;6091;51.432;6.880;2023-12-20T09:21:35;25.90;36.40
12060;DHT22;6091;51.432;6.880;2023-12-20T09:24:02;25.90;36.30
12060;DHT22;6091;51.432;6.880;2023-12-20T09:26:29;25.90;36.40
12060;DHT22;6091;51.432;6.880;2023-12-20T09:28:56;25.90;36.40
12060;DHT22;6091;51.432;6.880;2023-12-20T09:31:23;25.90;36.40
12060;DHT22;6091;51.432;6.880;2023-12-20T09:33:51;25.90;36.40
12060;DHT22;6091;51.432;6.880;2023-12-20T09:36:18;25.80;36.40
12060;DHT22;6091;51.432;6.880;2023-12-20T09:38:45;25.40;36.10
12060;DHT22;6091;51.432;6.880;2023-12-20T09:41:13;25.80;36.40
12060;DHT22;6091;51.432;6.880;2023-12-20T09:43:41;25.80;36.30
12060;DHT22;6091;51.432;6.880;2023-12-20T09:46:14;25.80;36.40
12060;DHT22;6091;51.432;6.880;2023-12-20T09:48:46;25.80;36.30
12060;DHT22;6091;51.432;6.880;2023-12-20T09:51:13;25.80;36.40
12060;DHT22;6091;51.432;6.880;2023-12-20T09:53:42;25.80;36.40
12060;DHT22;6091;51.432;6.880;2023-12-20T09:56:11;25.80;36.40
12060;DHT22;6091;51.432;6.880;2023-12-20T09:58:39;25.70;36.30
12060;DHT22;6091;51.432;6.880;2023-12-20T10:01:08;25.70;36.30
12060;DHT22;6091;51.432;6.880;2023-12-20T10:03:35;25.70;36.30
12060;DHT22;6091;51.432;6.880;2023-12-20T10:06:07;25.70;36.30
12060;DHT22;6091;51.432;6.880;2023-12-20T10:08:36;25.70;36.40
12060;DHT22;6091;51.432;6.880;2023-12-20T10:11:03;25.70;36.30
12060;DHT22;6091;51.432;6.880;2023-12-20T10:13:31;25.70;36.20
12060;DHT22;6091;51.432;6.880;2023-12-20T10:15:59;25.60;35.80
12060;DHT22;6091;51.432;6.880;2023-12-20T10:18:29;25.70;35.10
12060;DHT22;6091;51.432;6.880;2023-12-20T10:21:06;25.60;34.60
12060;DHT22;6091;51.432;6.880;2023-12-20T10:23:37;25.60;35.00
12060;DHT22;6091;51.432;6.880;2023-12-20T10:26:06;25.60;35.20
12060;DHT22;6091;51.432;6.880;2023-12-20T10:28:34;25.50;35.30
12060;DHT22;6091;51.432;6.880;2023-12-20T10:31:02;25.50;35.30
12060;DHT22;6091;51.432;6.880;2023-12-20T10:33:30;25.40;35.40
12060;DHT22;6091;51.432;6.880;2023-12-20T10:36:05;25.50;35.60
12060;DHT22;6091;51.432;6.880;2023-12-20T10:38:34;25.50;35.60
12060;DHT22;6091;51.432;6.880;2023-12-20T10:41:06;25.50;35.70
12060;DHT22;6091;51.432;6.880;2023-12-20T10:43:36;25.50;35.70
12060;DHT22;6091;51.432;6.880;2023-12-20T10:46:05;25.50;35.80
12060;DHT22;6091;51.432;6.880;2023-12-20T10:48:33;25.50;35.90
12060;DHT22;6091;51.432;6.880;2023-12-20T10:51:02;25.50;35.90
12060;DHT22;6091;51.432;6.880;2023-12-20T10:53:30;25.60;35.90
12060;DHT22;6091;51.432;6.880;2023-12-20T10:56:00;25.60;35.70
12060;DHT22;6091;51.432;6.880;2023-12-20T10:58:32;25.60;35.50
12060;DHT22;6091;51.432;6.880;2023-12-20T11:01:01;25.60;35.60
12060;DHT22;6091;51.432;6.880;2023-12-20T11:03:34;25.70;35.70
12060;DHT22;6091;51.432;6.880;2023-12-20T11:17:09;25.80;35.60
12060;DHT22;6091;51.432;6.880;2023-12-20T11:22:24;25.90;35.60
12060;DHT22;6091;51.432;6.880;2023-12-20T11:24:53;25.90;35.70
12060;DHT22;6091;51.432;6.880;2023-12-20T11:27:23;25.90;35.80
12060;DHT22;6091;51.432;6.880;2023-12-20T11:29:52;25.90;35.80
12060;DHT22;6091;51.432;6.880;2023-12-20T11:35:00;26.00;35.70
12060;DHT22;6091;51.432;6.880;2023-12-20T11:37:32;26.00;35.70
12060;DHT22;6091;51.432;6.880;2023-12-20T11:40:08;26.00;35.70
12060;DHT22;6091;51.432;6.880;2023-12-20T11:42:39;26.00;35.60
12060;DHT22;6091;51.432;6.880;2023-12-20T11:45:18;26.00;35.70
12060;DHT22;6091;51.432;6.880;2023-12-20T11:47:50;26.00;35.60
12060;DHT22;6091;51.432;6.880;2023-12-20T11:50:19;26.10;35.70
12060;DHT22;6091;51.432;6.880;2023-12-20T11:52:48;26.00;35.70
12060;DHT22;6091;51.432;6.880;2023-12-20T11:55:16;26.00;35.60
12060;DHT22;6091;51.432;6.880;2023-12-20T11:57:43;26.00;35.60
12060;DHT22;6091;51.432;6.880;2023-12-20T12:00:13;26.00;35.60
12060;DHT22;6091;51.432;6.880;2023-12-20T12:02:41;26.00;35.60
12060;DHT22;6091;51.432;6.880;2023-12-20T12:05:10;26.00;35.60
12060;DHT22;6091;51.432;6.880;2023-12-20T12:07:37;25.90;35.60
12060;DHT22;6091;51.432;6.880;2023-12-20T12:10:05;26.00;35.60
12060;DHT22;6091;51.432;6.880;2023-12-20T12:12:35;25.80;35.50
12060;DHT22;6091;51.432;6.880;2023-12-20T12:15:02;25.90;35.60
12060;DHT22;6091;51.432;6.880;2023-12-20T12:17:30;25.90;35.70
12060;DHT22;6091;51.432;6.880;2023-12-20T12:20:05;25.80;35.80
12060;DHT22;6091;51.432;6.880;2023-12-20T12:22:33;25.80;35.70
12060;DHT22;6091;51.432;6.880;2023-12-20T12:25:10;25.80;35.70
12060;DHT22;6091;51.432;6.880;2023-12-20T12:27:42;25.90;35.70
12060;DHT22;6091;51.432;6.880;2023-12-20T12:30:11;25.90;35.70
12060;DHT22;6091;51.432;6.880;2023-12-20T12:32:40;25.90;35.80
12060;DHT22;6091;51.432;6.880;2023-12-20T12:35:08;25.90;35.70
12060;DHT22;6091;51.432;6.880;2023-12-20T12:37:40;25.90;35.70
12060;DHT22;6091;51.432;6.880;2023-12-20T12:40:13;25.90;35.70
12060;DHT22;6091;51.432;6.880;2023-12-20T12:42:43;25.90;35.70
12060;DHT22;6091;51.432;6.880;2023-12-20T12:45:12;25.90;35.70
12060;DHT22;6091;51.432;6.880;2023-12-20T12:47:40;25.90;35.70
12060;DHT22;6091;51.432;6.880;2023-12-20T12:50:08;25.90;35.60
12060;DHT22;6091;51.432;6.880;2023-12-20T12:52:36;25.90;36.20
12060;DHT22;6091;51.432;6.880;2023-12-20T12:55:06;25.90;35.60
12060;DHT22;6091;51.432;6.880;2023-12-20T12:57:33;25.90;35.60
12060;DHT22;6091;51.432;6.880;2023-12-20T13:00:01;25.90;35.60
12060;DHT22;6091;51.432;6.880;2023-12-20T13:02:30;25.90;35.70
12060;DHT22;6091;51.432;6.880;2023-12-20T13:04:57;25.90;35.60
12060;DHT22;6091;51.432;6.880;2023-12-20T13:07:24;25.90;35.60
12060;DHT22;6091;51.432;6.880;2023-12-20T13:09:52;25.90;35.60
12060;DHT22;6091;51.432;6.880;2023-12-20T13:12:19;25.90;35.60
12060;DHT22;6091;51.432;6.880;2023-12-20T13:14:46;25.90;35.60
12060;DHT22;6091;51.432;6.880;2023-12-20T13:17:14;25.90;35.50
12060;DHT22;6091;51.432;6.880;2023-12-20T13:19:42;25.90;35.60
12060;DHT22;6091;51.432;6.880;2023-12-20T13:22:10;25.90;35.70
12060;DHT22;6091;51.432;6.880;2023-12-20T13:24:38;25.90;35.80
12060;DHT22;6091;51.432;6.880;2023-12-20T13:27:06;25.90;35.80
12060;DHT22;6091;51.432;6.880;2023-12-20T13:29:33;25.90;35.80
12060;DHT22;6091;51.432;6.880;2023-12-20T13:32:04;25.90;35.70
12060;DHT22;6091;51.432;6.880;2023-12-20T13:34:32;25.90;35.80
12060;DHT22;6091;51.432;6.880;2023-12-20T13:37:00;25.90;35.80
12060;DHT22;6091;51.432;6.880;2023-12-20T13:39:28;25.90;35.70
12060;DHT22;6091;51.432;6.880;2023-12-20T13:41:55;25.90;35.70
12060;DHT22;6091;51.432;6.880;2023-12-20T13:44:26;26.00;35.80
12060;DHT22;6091;51.432;6.880;2023-12-20T13:46:54;26.00;35.80
12060;DHT22;6091;51.432;6.880;2023-12-20T13:49:21;25.90;35.70
12060;DHT22;6091;51.432;6.880;2023-12-20T13:51:53;26.00;35.80
12060;DHT22;6091;51.432;6.880;2023-12-20T13:54:22;26.00;35.80
12060;DHT22;6091;51.432;6.880;2023-12-20T13:56:49;26.00;35.80
12060;DHT22;6091;51.432;6.880;2023-12-20T13:59:34;26.10;35.80
12060;DHT22;6091;51.432;6.880;2023-12-20T14:02:02;26.00;35.70
12060;DHT22;6091;51.432;6.880;2023-12-20T14:04:31;26.00;35.70
12060;DHT22;6091;51.432;6.880;2023-12-20T14:07:09;26.10;35.70
12060;DHT22;6091;51.432;6.880;2023-12-20T14:09:40;26.00;35.70
12060;DHT22;6091;51.432;6.880;2023-12-20T14:12:13;26.10;35.70
12060;DHT22;6091;51.432;6.880;2023-12-20T14:14:41;26.00;35.60
12060;DHT22;6091;51.432;6.880;2023-12-20T14:17:09;26.10;35.70
12060;DHT22;6091;51.432;6.880;2023-12-20T14:19:36;26.10;35.70
12060;DHT22;6091;51.432;6.880;2023-12-20T14:22:04;26.10;35.70
12060;DHT22;6091;51.432;6.880;2023-12-20T14:24:32;26.10;35.70
12060;DHT22;6091;51.432;6.880;2023-12-20T14:27:00;26.10;35.70
12060;DHT22;6091;51.432;6.880;2023-12-20T14:29:28;26.10;35.70
12060;DHT22;6091;51.432;6.880;2023-12-20T14:31:56;26.10;35.70
12060;DHT22;6091;51.432;6.880;2023-12-20T14:34:23;26.10;35.70
12060;DHT22;6091;51.432;6.880;2023-12-20T14:36:51;26.10;35.60
12060;DHT22;6091;51.432;6.880;2023-12-20T14:39:20;26.10;35.50
12060;DHT22;6091;51.432;6.880;2023-12-20T14:41:47;26.10;35.40
12060;DHT22;6091;51.432;6.880;2023-12-20T14:44:15;26.10;35.30
12060;DHT22;6091;51.432;6.880;2023-12-20T14:46:43;26.00;35.20
12060;DHT22;6091;51.432;6.880;2023-12-20T14:49:11;26.10;35.30
12060;DHT22;6091;51.432;6.880;2023-12-20T14:51:39;26.10;35.20
12060;DHT22;6091;51.432;6.880;2023-12-20T14:54:06;26.00;35.30
12060;DHT22;6091;51.432;6.880;2023-12-20T14:56:37;26.10;35.30
12060;DHT22;6091;51.432;6.880;2023-12-20T14:59:05;26.10;35.30
12060;DHT22;6091;51.432;6.880;2023-12-20T15:01:33;26.00;35.20
12060;DHT22;6091;51.432;6.880;2023-12-20T15:04:01;26.10;35.30
12060;DHT22;6091;51.432;6.880;2023-12-20T15:06:28;26.10;35.20
12060;DHT22;6091;51.432;6.880;2023-12-20T15:08:55;25.90;35.70
12060;DHT22;6091;51.432;6.880;2023-12-20T15:11:23;25.90;35.30
12060;DHT22;6091;51.432;6.880;2023-12-20T15:13:50;25.90;35.30
12060;DHT22;6091;51.432;6.880;2023-12-20T15:16:23;25.90;35.20
12060;DHT22;6091;51.432;6.880;2023-12-20T15:18:51;26.00;35.20
12060;DHT22;6091;51.432;6.880;2023-12-20T15:21:20;26.00;35.30
12060;DHT22;6091;51.432;6.880;2023-12-20T15:23:57;26.00;35.30
12060;DHT22;6091;51.432;6.880;2023-12-20T15:26:33;25.90;35.30
12060;DHT22;6091;51.432;6.880;2023-12-20T15:29:01;25.90;35.30
12060;DHT22;6091;51.432;6.880;2023-12-20T15:31:29;25.90;35.30
12060;DHT22;6091;51.432;6.880;2023-12-20T15:33:57;26.00;35.40
12060;DHT22;6091;51.432;6.880;2023-12-20T15:36:24;26.00;35.40
12060;DHT22;6091;51.432;6.880;2023-12-20T15:38:53;26.00;35.50
12060;DHT22;6091;51.432;6.880;2023-12-20T15:41:23;26.00;35.50
12060;DHT22;6091;51.432;6.880;2023-12-20T15:43:51;25.90;35.40
12060;DHT22;6091;51.432;6.880;2023-12-20T15:46:19;26.00;35.50
12060;DHT22;6091;51.432;6.880;2023-12-20T15:48:47;26.00;35.50
12060;DHT22;6091;51.432;6.880;2023-12-20T15:51:15;26.00;35.50
12060;DHT22;6091;51.432;6.880;2023-12-20T15:53:43;26.00;35.50
12060;DHT22;6091;51.432;6.880;2023-12-20T15:56:10;26.00;35.50
12060;DHT22;6091;51.432;6.880;2023-12-20T15:58:38;26.00;35.50
12060;DHT22;6091;51.432;6.880;2023-12-20T16:01:06;26.00;35.40
12060;DHT22;6091;51.432;6.880;2023-12-20T16:03:34;26.00;35.40
12060;DHT22;6091;51.432;6.880;2023-12-20T16:06:10;26.00;35.40
12060;DHT22;6091;51.432;6.880;2023-12-20T16:08:39;26.00;35.40